sensor_id;sensor_type;location;lat;lon;timestamp;P1;durP1;ratioP1;P2;durP2;ratioP2
4700;SDS011;8724;51.272;6.554;2023-08-30T00:00:45;8.03;;;7.23;;
4700;SDS011;8724;51.272;6.554;2023-08-30T00:03:13;8.27;;;7.57;;
4700;SDS011;8724;51.272;6.554;2023-08-30T00:05:42;7.53;;;6.83;;
4700;SDS011;8724;51.272;6.554;2023-08-30T00:08:10;10.40;;;7.57;;
4700;SDS011;8724;51.272;6.554;2023-08-30T00:10:41;7.53;;;6.83;;
4700;SDS011;8724;51.272;6.554;2023-08-30T00:13:09;9.20;;;6.50;;
4700;SDS011;8724;51.272;6.554;2023-08-30T00:15:37;10.00;;;7.70;;
4700;SDS011;8724;51.272;6.554;2023-08-30T00:18:06;8.17;;;7.33;;
4700;SDS011;8724;51.272;6.554;2023-08-30T00:20:34;8.37;;;7.47;;
4700;SDS011;8724;51.272;6.554;2023-08-30T00:23:03;8.03;;;7.33;;
4700;SDS011;8724;51.272;6.554;2023-08-30T00:25:31;8.13;;;6.77;;
4700;SDS011;8724;51.272;6.554;2023-08-30T00:28:01;8.70;;;7.90;;
4700;SDS011;8724;51.272;6.554;2023-08-30T00:30:29;8.20;;;7.40;;
4700;SDS011;8724;51.272;6.554;2023-08-30T00:32:57;8.53;;;7.63;;
4700;SDS011;8724;51.272;6.554;2023-08-30T00:35:26;8.13;;;7.43;;
4700;SDS011;8724;51.272;6.554;2023-08-30T00:37:54;7.63;;;6.93;;
4700;SDS011;8724;51.272;6.554;2023-08-30T00:40:22;10.73;;;7.20;;
4700;SDS011;8724;51.272;6.554;2023-08-30T00:42:52;12.37;;;7.50;;
4700;SDS011;8724;51.272;6.554;2023-08-30T00:45:22;9.17;;;8.27;;
4700;SDS011;8724;51.272;6.554;2023-08-30T00:47:50;8.10;;;6.27;;
4700;SDS011;8724;51.272;6.554;2023-08-30T00:50:18;8.53;;;7.40;;
4700;SDS011;8724;51.272;6.554;2023-08-30T00:52:47;8.17;;;7.40;;
4700;SDS011;8724;51.272;6.554;2023-08-30T00:55:16;8.00;;;7.00;;
4700;SDS011;8724;51.272;6.554;2023-08-30T00:57:44;26.93;;;8.13;;
4700;SDS011;8724;51.272;6.554;2023-08-30T01:00:14;7.37;;;6.63;;
4700;SDS011;8724;51.272;6.554;2023-08-30T01:02:44;7.63;;;6.93;;
4700;SDS011;8724;51.272;6.554;2023-08-30T01:05:12;10.90;;;7.53;;
4700;SDS011;8724;51.272;6.554;2023-08-30T01:07:42;8.00;;;7.30;;
4700;SDS011;8724;51.272;6.554;2023-08-30T01:10:10;9.07;;;8.23;;
4700;SDS011;8724;51.272;6.554;2023-08-30T01:12:39;8.80;;;7.80;;
4700;SDS011;8724;51.272;6.554;2023-08-30T01:15:12;7.70;;;7.00;;
4700;SDS011;8724;51.272;6.554;2023-08-30T01:17:47;7.80;;;7.10;;
4700;SDS011;8724;51.272;6.554;2023-08-30T01:20:16;8.33;;;6.87;;
4700;SDS011;8724;51.272;6.554;2023-08-30T01:22:52;7.40;;;6.70;;
4700;SDS011;8724;51.272;6.554;2023-08-30T01:25:31;8.10;;;6.83;;
4700;SDS011;8724;51.272;6.554;2023-08-30T01:28:07;6.37;;;5.80;;
4700;SDS011;8724;51.272;6.554;2023-08-30T01:30:39;7.70;;;6.40;;
4700;SDS011;8724;51.272;6.554;2023-08-30T01:33:09;7.33;;;6.43;;
4700;SDS011;8724;51.272;6.554;2023-08-30T01:35:40;7.10;;;6.40;;
4700;SDS011;8724;51.272;6.554;2023-08-30T01:38:08;6.53;;;5.77;;
4700;SDS011;8724;51.272;6.554;2023-08-30T01:40:38;6.77;;;5.83;;
4700;SDS011;8724;51.272;6.554;2023-08-30T01:43:10;7.83;;;6.13;;
4700;SDS011;8724;51.272;6.554;2023-08-30T01:45:39;5.90;;;5.40;;
4700;SDS011;8724;51.272;6.554;2023-08-30T01:48:10;11.30;;;8.10;;
4700;SDS011;8724;51.272;6.554;2023-08-30T01:50:41;7.80;;;7.10;;
4700;SDS011;8724;51.272;6.554;2023-08-30T01:53:11;7.13;;;6.43;;
4700;SDS011;8724;51.272;6.554;2023-08-30T01:55:40;7.97;;;7.20;;
4700;SDS011;8724;51.272;6.554;2023-08-30T01:58:11;7.23;;;6.57;;
4700;SDS011;8724;51.272;6.554;2023-08-30T02:00:39;7.03;;;6.47;;
4700;SDS011;8724;51.272;6.554;2023-08-30T02:03:08;10.80;;;6.27;;
4700;SDS011;8724;51.272;6.554;2023-08-30T02:05:39;10.10;;;7.50;;
4700;SDS011;8724;51.272;6.554;2023-08-30T02:08:14;7.00;;;6.40;;
4700;SDS011;8724;51.272;6.554;2023-08-30T02:10:51;8.50;;;7.43;;
4700;SDS011;8724;51.272;6.554;2023-08-30T02:13:26;8.70;;;7.57;;
4700;SDS011;8724;51.272;6.554;2023-08-30T02:15:58;8.47;;;7.67;;
4700;SDS011;8724;51.272;6.554;2023-08-30T02:18:29;9.13;;;7.03;;
4700;SDS011;8724;51.272;6.554;2023-08-30T02:21:00;8.53;;;7.10;;
4700;SDS011;8724;51.272;6.554;2023-08-30T02:23:28;8.13;;;7.03;;
4700;SDS011;8724;51.272;6.554;2023-08-30T02:25:57;8.10;;;7.40;;
4700;SDS011;8724;51.272;6.554;2023-08-30T02:28:26;9.20;;;7.90;;
4700;SDS011;8724;51.272;6.554;2023-08-30T02:30:55;7.13;;;6.53;;
4700;SDS011;8724;51.272;6.554;2023-08-30T02:33:23;7.87;;;7.10;;
4700;SDS011;8724;51.272;6.554;2023-08-30T02:35:51;8.10;;;7.40;;
4700;SDS011;8724;51.272;6.554;2023-08-30T02:38:20;7.50;;;6.70;;
4700;SDS011;8724;51.272;6.554;2023-08-30T02:40:48;13.83;;;8.20;;
4700;SDS011;8724;51.272;6.554;2023-08-30T02:43:16;8.80;;;8.00;;
4700;SDS011;8724;51.272;6.554;2023-08-30T02:45:46;10.00;;;8.23;;
4700;SDS011;8724;51.272;6.554;2023-08-30T02:48:14;11.53;;;7.70;;
4700;SDS011;8724;51.272;6.554;2023-08-30T02:50:42;9.20;;;8.30;;
4700;SDS011;8724;51.272;6.554;2023-08-30T02:53:11;10.60;;;8.00;;
4700;SDS011;8724;51.272;6.554;2023-08-30T02:55:39;8.30;;;7.60;;
4700;SDS011;8724;51.272;6.554;2023-08-30T02:58:07;8.20;;;7.40;;
4700;SDS011;8724;51.272;6.554;2023-08-30T03:00:36;8.73;;;7.60;;
4700;SDS011;8724;51.272;6.554;2023-08-30T03:03:07;6.43;;;5.90;;
4700;SDS011;8724;51.272;6.554;2023-08-30T03:05:36;7.00;;;6.40;;
4700;SDS011;8724;51.272;6.554;2023-08-30T03:08:04;7.43;;;6.80;;
4700;SDS011;8724;51.272;6.554;2023-08-30T03:10:33;9.47;;;7.33;;
4700;SDS011;8724;51.272;6.554;2023-08-30T03:13:01;7.90;;;7.10;;
4700;SDS011;8724;51.272;6.554;2023-08-30T03:15:31;8.03;;;6.90;;
4700;SDS011;8724;51.272;6.554;2023-08-30T03:18:00;8.13;;;6.90;;
4700;SDS011;8724;51.272;6.554;2023-08-30T03:20:29;6.33;;;5.73;;
4700;SDS011;8724;51.272;6.554;2023-08-30T03:22:57;8.00;;;6.90;;
4700;SDS011;8724;51.272;6.554;2023-08-30T03:25:28;7.03;;;6.37;;
4700;SDS011;8724;51.272;6.554;2023-08-30T03:27:58;6.17;;;5.60;;
4700;SDS011;8724;51.272;6.554;2023-08-30T03:30:26;9.50;;;7.60;;
4700;SDS011;8724;51.272;6.554;2023-08-30T03:32:54;8.00;;;6.60;;
4700;SDS011;8724;51.272;6.554;2023-08-30T03:35:23;8.13;;;6.77;;
4700;SDS011;8724;51.272;6.554;2023-08-30T03:37:52;9.13;;;6.20;;
4700;SDS011;8724;51.272;6.554;2023-08-30T03:40:20;6.10;;;5.60;;
4700;SDS011;8724;51.272;6.554;2023-08-30T03:42:50;6.57;;;5.70;;
4700;SDS011;8724;51.272;6.554;2023-08-30T03:45:18;7.47;;;6.27;;
4700;SDS011;8724;51.272;6.554;2023-08-30T03:47:46;6.70;;;6.20;;
4700;SDS011;8724;51.272;6.554;2023-08-30T03:50:15;6.10;;;5.50;;
4700;SDS011;8724;51.272;6.554;2023-08-30T03:52:43;7.03;;;6.40;;
4700;SDS011;8724;51.272;6.554;2023-08-30T03:55:13;6.70;;;5.73;;
4700;SDS011;8724;51.272;6.554;2023-08-30T03:57:41;6.27;;;5.67;;
4700;SDS011;8724;51.272;6.554;2023-08-30T04:00:09;9.20;;;6.20;;
4700;SDS011;8724;51.272;6.554;2023-08-30T04:02:41;8.10;;;7.30;;
4700;SDS011;8724;51.272;6.554;2023-08-30T04:05:11;7.73;;;7.13;;
4700;SDS011;8724;51.272;6.554;2023-08-30T04:07:39;7.27;;;6.60;;
4700;SDS011;8724;51.272;6.554;2023-08-30T04:10:07;7.43;;;6.83;;
4700;SDS011;8724;51.272;6.554;2023-08-30T04:12:37;7.30;;;6.70;;
4700;SDS011;8724;51.272;6.554;2023-08-30T04:15:05;8.63;;;7.20;;
4700;SDS011;8724;51.272;6.554;2023-08-30T04:17:34;7.97;;;7.00;;
4700;SDS011;8724;51.272;6.554;2023-08-30T04:20:02;8.80;;;7.17;;
4700;SDS011;8724;51.272;6.554;2023-08-30T04:22:32;8.23;;;7.10;;
4700;SDS011;8724;51.272;6.554;2023-08-30T04:25:01;12.77;;;8.17;;
4700;SDS011;8724;51.272;6.554;2023-08-30T04:27:29;10.30;;;7.00;;
4700;SDS011;8724;51.272;6.554;2023-08-30T04:29:59;7.67;;;6.97;;
4700;SDS011;8724;51.272;6.554;2023-08-30T04:32:27;8.57;;;7.60;;
4700;SDS011;8724;51.272;6.554;2023-08-30T04:34:55;10.87;;;7.13;;
4700;SDS011;8724;51.272;6.554;2023-08-30T04:37:29;9.47;;;7.43;;
4700;SDS011;8724;51.272;6.554;2023-08-30T04:39:58;9.23;;;8.23;;
4700;SDS011;8724;51.272;6.554;2023-08-30T04:42:26;8.50;;;7.70;;
4700;SDS011;8724;51.272;6.554;2023-08-30T04:44:54;11.83;;;7.97;;
4700;SDS011;8724;51.272;6.554;2023-08-30T04:47:24;12.10;;;9.30;;
4700;SDS011;8724;51.272;6.554;2023-08-30T04:49:54;9.40;;;8.23;;
4700;SDS011;8724;51.272;6.554;2023-08-30T04:52:21;9.13;;;7.60;;
4700;SDS011;8724;51.272;6.554;2023-08-30T04:54:52;9.10;;;8.10;;
4700;SDS011;8724;51.272;6.554;2023-08-30T04:57:22;13.23;;;8.23;;
4700;SDS011;8724;51.272;6.554;2023-08-30T04:59:50;13.97;;;8.30;;
4700;SDS011;8724;51.272;6.554;2023-08-30T05:02:19;9.23;;;8.33;;
4700;SDS011;8724;51.272;6.554;2023-08-30T05:05:10;12.73;;;6.80;;
4700;SDS011;8724;51.272;6.554;2023-08-30T05:07:38;8.57;;;6.90;;
4700;SDS011;8724;51.272;6.554;2023-08-30T05:10:06;12.20;;;7.77;;
4700;SDS011;8724;51.272;6.554;2023-08-30T05:12:35;14.50;;;8.00;;
4700;SDS011;8724;51.272;6.554;2023-08-30T05:15:04;8.10;;;6.73;;
4700;SDS011;8724;51.272;6.554;2023-08-30T05:17:34;7.83;;;7.07;;
4700;SDS011;8724;51.272;6.554;2023-08-30T05:20:03;7.53;;;6.80;;
4700;SDS011;8724;51.272;6.554;2023-08-30T05:22:34;6.13;;;5.53;;
4700;SDS011;8724;51.272;6.554;2023-08-30T05:25:03;6.43;;;5.20;;
4700;SDS011;8724;51.272;6.554;2023-08-30T05:27:31;7.80;;;5.37;;
4700;SDS011;8724;51.272;6.554;2023-08-30T05:30:00;7.40;;;5.67;;
4700;SDS011;8724;51.272;6.554;2023-08-30T05:32:29;9.50;;;5.77;;
4700;SDS011;8724;51.272;6.554;2023-08-30T05:35:17;6.23;;;5.63;;
4700;SDS011;8724;51.272;6.554;2023-08-30T05:38:14;7.97;;;7.00;;
4700;SDS011;8724;51.272;6.554;2023-08-30T05:40:56;10.80;;;7.00;;
4700;SDS011;8724;51.272;6.554;2023-08-30T05:43:24;9.90;;;6.37;;
4700;SDS011;8724;51.272;6.554;2023-08-30T05:45:53;8.83;;;5.90;;
4700;SDS011;8724;51.272;6.554;2023-08-30T05:48:21;7.67;;;6.87;;
4700;SDS011;8724;51.272;6.554;2023-08-30T05:50:49;7.27;;;6.60;;
4700;SDS011;8724;51.272;6.554;2023-08-30T05:53:19;12.10;;;6.87;;
4700;SDS011;8724;51.272;6.554;2023-08-30T05:55:47;8.70;;;5.67;;
4700;SDS011;8724;51.272;6.554;2023-08-30T05:58:17;6.23;;;5.63;;
4700;SDS011;8724;51.272;6.554;2023-08-30T06:00:46;7.30;;;6.00;;
4700;SDS011;8724;51.272;6.554;2023-08-30T06:03:14;9.80;;;6.27;;
4700;SDS011;8724;51.272;6.554;2023-08-30T06:05:43;7.97;;;6.60;;
4700;SDS011;8724;51.272;6.554;2023-08-30T06:08:11;6.67;;;5.97;;
4700;SDS011;8724;51.272;6.554;2023-08-30T06:10:41;6.10;;;5.50;;
4700;SDS011;8724;51.272;6.554;2023-08-30T06:13:09;7.87;;;6.50;;
4700;SDS011;8724;51.272;6.554;2023-08-30T06:15:37;8.03;;;5.30;;
4700;SDS011;8724;51.272;6.554;2023-08-30T06:18:05;9.97;;;6.00;;
4700;SDS011;8724;51.272;6.554;2023-08-30T06:20:35;6.67;;;6.07;;
4700;SDS011;8724;51.272;6.554;2023-08-30T06:23:03;6.40;;;5.80;;
4700;SDS011;8724;51.272;6.554;2023-08-30T06:25:31;6.70;;;5.17;;
4700;SDS011;8724;51.272;6.554;2023-08-30T06:28:01;7.83;;;5.57;;
4700;SDS011;8724;51.272;6.554;2023-08-30T06:30:29;5.60;;;5.00;;
4700;SDS011;8724;51.272;6.554;2023-08-30T06:32:58;7.00;;;6.30;;
4700;SDS011;8724;51.272;6.554;2023-08-30T06:35:27;7.57;;;5.60;;
4700;SDS011;8724;51.272;6.554;2023-08-30T06:37:55;5.70;;;5.10;;
4700;SDS011;8724;51.272;6.554;2023-08-30T06:40:24;5.87;;;5.30;;
4700;SDS011;8724;51.272;6.554;2023-08-30T06:42:52;6.87;;;5.77;;
4700;SDS011;8724;51.272;6.554;2023-08-30T06:45:22;5.60;;;5.03;;
4700;SDS011;8724;51.272;6.554;2023-08-30T06:47:50;8.00;;;5.80;;
4700;SDS011;8724;51.272;6.554;2023-08-30T06:50:19;6.50;;;5.90;;
4700;SDS011;8724;51.272;6.554;2023-08-30T06:52:47;6.03;;;5.43;;
4700;SDS011;8724;51.272;6.554;2023-08-30T06:55:16;7.70;;;5.53;;
4700;SDS011;8724;51.272;6.554;2023-08-30T06:57:47;5.47;;;4.47;;
4700;SDS011;8724;51.272;6.554;2023-08-30T07:00:17;6.67;;;5.13;;
4700;SDS011;8724;51.272;6.554;2023-08-30T07:02:47;5.77;;;4.97;;
4700;SDS011;8724;51.272;6.554;2023-08-30T07:05:15;7.20;;;6.00;;
4700;SDS011;8724;51.272;6.554;2023-08-30T07:07:44;4.57;;;4.17;;
4700;SDS011;8724;51.272;6.554;2023-08-30T07:10:12;4.93;;;4.43;;
4700;SDS011;8724;51.272;6.554;2023-08-30T07:12:40;5.80;;;4.70;;
4700;SDS011;8724;51.272;6.554;2023-08-30T07:15:09;4.67;;;4.20;;
4700;SDS011;8724;51.272;6.554;2023-08-30T07:17:37;6.87;;;4.70;;
4700;SDS011;8724;51.272;6.554;2023-08-30T07:20:20;6.27;;;5.00;;
4700;SDS011;8724;51.272;6.554;2023-08-30T07:22:49;5.30;;;4.80;;
4700;SDS011;8724;51.272;6.554;2023-08-30T07:25:17;5.07;;;4.57;;
4700;SDS011;8724;51.272;6.554;2023-08-30T07:27:46;6.50;;;4.70;;
4700;SDS011;8724;51.272;6.554;2023-08-30T07:30:14;6.27;;;4.00;;
4700;SDS011;8724;51.272;6.554;2023-08-30T07:32:42;4.53;;;3.83;;
4700;SDS011;8724;51.272;6.554;2023-08-30T07:35:10;6.03;;;3.83;;
4700;SDS011;8724;51.272;6.554;2023-08-30T07:37:42;3.87;;;3.57;;
4700;SDS011;8724;51.272;6.554;2023-08-30T07:40:10;6.77;;;3.67;;
4700;SDS011;8724;51.272;6.554;2023-08-30T07:42:39;5.97;;;4.10;;
4700;SDS011;8724;51.272;6.554;2023-08-30T07:45:08;5.33;;;4.83;;
4700;SDS011;8724;51.272;6.554;2023-08-30T07:47:37;3.60;;;3.30;;
4700;SDS011;8724;51.272;6.554;2023-08-30T07:50:06;7.07;;;4.27;;
4700;SDS011;8724;51.272;6.554;2023-08-30T07:52:36;5.43;;;3.80;;
4700;SDS011;8724;51.272;6.554;2023-08-30T07:55:14;4.27;;;3.53;;
4700;SDS011;8724;51.272;6.554;2023-08-30T07:57:43;4.20;;;3.57;;
4700;SDS011;8724;51.272;6.554;2023-08-30T08:00:11;3.50;;;3.20;;
4700;SDS011;8724;51.272;6.554;2023-08-30T08:02:43;5.33;;;4.03;;
4700;SDS011;8724;51.272;6.554;2023-08-30T08:05:12;4.13;;;3.20;;
4700;SDS011;8724;51.272;6.554;2023-08-30T08:07:41;6.37;;;4.40;;
4700;SDS011;8724;51.272;6.554;2023-08-30T08:10:10;3.90;;;3.60;;
4700;SDS011;8724;51.272;6.554;2023-08-30T08:12:40;6.17;;;3.93;;
4700;SDS011;8724;51.272;6.554;2023-08-30T08:15:09;3.63;;;3.27;;
4700;SDS011;8724;51.272;6.554;2023-08-30T08:17:37;4.57;;;3.37;;
4700;SDS011;8724;51.272;6.554;2023-08-30T08:20:06;3.90;;;3.50;;
4700;SDS011;8724;51.272;6.554;2023-08-30T08:22:35;3.80;;;3.40;;
4700;SDS011;8724;51.272;6.554;2023-08-30T08:25:03;2.73;;;2.53;;
4700;SDS011;8724;51.272;6.554;2023-08-30T08:27:32;3.70;;;3.40;;
4700;SDS011;8724;51.272;6.554;2023-08-30T08:30:01;4.33;;;3.33;;
4700;SDS011;8724;51.272;6.554;2023-08-30T08:32:30;5.53;;;3.53;;
4700;SDS011;8724;51.272;6.554;2023-08-30T08:34:59;3.97;;;3.10;;
4700;SDS011;8724;51.272;6.554;2023-08-30T08:37:27;4.33;;;2.70;;
4700;SDS011;8724;51.272;6.554;2023-08-30T08:39:56;6.40;;;3.43;;
4700;SDS011;8724;51.272;6.554;2023-08-30T08:42:24;3.13;;;2.83;;
4700;SDS011;8724;51.272;6.554;2023-08-30T08:44:53;3.13;;;2.73;;
4700;SDS011;8724;51.272;6.554;2023-08-30T08:47:25;3.03;;;2.83;;
4700;SDS011;8724;51.272;6.554;2023-08-30T08:49:53;3.60;;;2.60;;
4700;SDS011;8724;51.272;6.554;2023-08-30T08:52:22;2.83;;;2.63;;
4700;SDS011;8724;51.272;6.554;2023-08-30T08:54:59;3.30;;;3.00;;
4700;SDS011;8724;51.272;6.554;2023-08-30T08:57:29;5.10;;;3.67;;
4700;SDS011;8724;51.272;6.554;2023-08-30T08:59:58;4.13;;;3.50;;
4700;SDS011;8724;51.272;6.554;2023-08-30T09:02:28;4.10;;;3.00;;
4700;SDS011;8724;51.272;6.554;2023-08-30T09:04:56;3.63;;;3.23;;
4700;SDS011;8724;51.272;6.554;2023-08-30T09:07:25;3.17;;;2.83;;
4700;SDS011;8724;51.272;6.554;2023-08-30T09:09:56;5.27;;;3.37;;
4700;SDS011;8724;51.272;6.554;2023-08-30T09:12:25;3.20;;;2.80;;
4700;SDS011;8724;51.272;6.554;2023-08-30T09:14:54;4.00;;;2.93;;
4700;SDS011;8724;51.272;6.554;2023-08-30T09:17:23;3.17;;;2.97;;
4700;SDS011;8724;51.272;6.554;2023-08-30T09:19:52;3.80;;;3.20;;
4700;SDS011;8724;51.272;6.554;2023-08-30T09:22:21;3.27;;;2.97;;
4700;SDS011;8724;51.272;6.554;2023-08-30T09:24:49;3.90;;;2.87;;
4700;SDS011;8724;51.272;6.554;2023-08-30T09:27:17;3.27;;;2.97;;
4700;SDS011;8724;51.272;6.554;2023-08-30T09:29:45;4.40;;;3.40;;
4700;SDS011;8724;51.272;6.554;2023-08-30T09:32:20;3.67;;;3.10;;
4700;SDS011;8724;51.272;6.554;2023-08-30T09:34:48;3.83;;;3.43;;
4700;SDS011;8724;51.272;6.554;2023-08-30T09:37:21;3.27;;;2.87;;
4700;SDS011;8724;51.272;6.554;2023-08-30T09:39:49;3.37;;;3.07;;
4700;SDS011;8724;51.272;6.554;2023-08-30T09:42:18;3.10;;;2.80;;
4700;SDS011;8724;51.272;6.554;2023-08-30T09:44:46;3.70;;;2.97;;
4700;SDS011;8724;51.272;6.554;2023-08-30T09:47:15;3.87;;;3.43;;
4700;SDS011;8724;51.272;6.554;2023-08-30T09:49:44;3.80;;;3.10;;
4700;SDS011;8724;51.272;6.554;2023-08-30T09:52:14;6.33;;;3.40;;
4700;SDS011;8724;51.272;6.554;2023-08-30T09:54:44;4.03;;;3.10;;
4700;SDS011;8724;51.272;6.554;2023-08-30T09:57:14;3.30;;;3.07;;
4700;SDS011;8724;51.272;6.554;2023-08-30T09:59:43;3.83;;;2.60;;
4700;SDS011;8724;51.272;6.554;2023-08-30T10:02:12;3.50;;;2.93;;
4700;SDS011;8724;51.272;6.554;2023-08-30T10:04:40;5.90;;;3.00;;
4700;SDS011;8724;51.272;6.554;2023-08-30T10:07:11;5.13;;;3.10;;
4700;SDS011;8724;51.272;6.554;2023-08-30T10:09:39;2.93;;;2.53;;
4700;SDS011;8724;51.272;6.554;2023-08-30T10:12:30;3.47;;;3.10;;
4700;SDS011;8724;51.272;6.554;2023-08-30T10:15:00;2.67;;;2.40;;
4700;SDS011;8724;51.272;6.554;2023-08-30T10:17:31;5.83;;;2.97;;
4700;SDS011;8724;51.272;6.554;2023-08-30T10:20:02;5.50;;;3.30;;
4700;SDS011;8724;51.272;6.554;2023-08-30T10:22:34;7.93;;;3.50;;
4700;SDS011;8724;51.272;6.554;2023-08-30T10:25:05;4.47;;;3.33;;
4700;SDS011;8724;51.272;6.554;2023-08-30T10:27:40;3.50;;;2.97;;
4700;SDS011;8724;51.272;6.554;2023-08-30T10:30:10;3.30;;;3.00;;
4700;SDS011;8724;51.272;6.554;2023-08-30T10:32:40;5.27;;;3.67;;
4700;SDS011;8724;51.272;6.554;2023-08-30T10:35:10;6.50;;;3.67;;
4700;SDS011;8724;51.272;6.554;2023-08-30T10:37:40;3.97;;;3.57;;
4700;SDS011;8724;51.272;6.554;2023-08-30T10:40:09;4.73;;;3.97;;
4700;SDS011;8724;51.272;6.554;2023-08-30T10:42:39;3.47;;;3.17;;
4700;SDS011;8724;51.272;6.554;2023-08-30T10:45:07;4.10;;;3.70;;
4700;SDS011;8724;51.272;6.554;2023-08-30T10:47:40;3.97;;;3.37;;
4700;SDS011;8724;51.272;6.554;2023-08-30T10:50:09;4.10;;;3.73;;
4700;SDS011;8724;51.272;6.554;2023-08-30T10:52:38;5.90;;;3.30;;
4700;SDS011;8724;51.272;6.554;2023-08-30T10:55:07;2.73;;;2.53;;
4700;SDS011;8724;51.272;6.554;2023-08-30T10:57:36;3.07;;;2.87;;
4700;SDS011;8724;51.272;6.554;2023-08-30T11:00:12;4.80;;;2.93;;
4700;SDS011;8724;51.272;6.554;2023-08-30T11:02:48;3.20;;;2.90;;
4700;SDS011;8724;51.272;6.554;2023-08-30T11:05:17;3.17;;;2.87;;
4700;SDS011;8724;51.272;6.554;2023-08-30T11:07:47;3.57;;;3.27;;
4700;SDS011;8724;51.272;6.554;2023-08-30T11:10:17;3.17;;;2.87;;
4700;SDS011;8724;51.272;6.554;2023-08-30T11:12:46;4.13;;;2.60;;
4700;SDS011;8724;51.272;6.554;2023-08-30T11:15:17;3.53;;;3.00;;
4700;SDS011;8724;51.272;6.554;2023-08-30T11:17:47;3.33;;;2.80;;
4700;SDS011;8724;51.272;6.554;2023-08-30T11:20:15;3.33;;;2.30;;
4700;SDS011;8724;51.272;6.554;2023-08-30T11:22:46;2.60;;;2.40;;
4700;SDS011;8724;51.272;6.554;2023-08-30T11:25:15;2.57;;;2.40;;
4700;SDS011;8724;51.272;6.554;2023-08-30T11:27:44;3.23;;;2.93;;
4700;SDS011;8724;51.272;6.554;2023-08-30T11:30:12;2.47;;;2.23;;
4700;SDS011;8724;51.272;6.554;2023-08-30T11:32:42;4.60;;;2.60;;
4700;SDS011;8724;51.272;6.554;2023-08-30T11:35:10;2.83;;;2.63;;
4700;SDS011;8724;51.272;6.554;2023-08-30T11:37:39;2.43;;;2.23;;
4700;SDS011;8724;51.272;6.554;2023-08-30T11:40:09;2.50;;;2.30;;
4700;SDS011;8724;51.272;6.554;2023-08-30T11:42:39;4.57;;;2.60;;
4700;SDS011;8724;51.272;6.554;2023-08-30T11:45:07;1.90;;;1.70;;
4700;SDS011;8724;51.272;6.554;2023-08-30T11:47:36;3.23;;;1.97;;
4700;SDS011;8724;51.272;6.554;2023-08-30T11:50:09;3.10;;;2.00;;
4700;SDS011;8724;51.272;6.554;2023-08-30T11:52:38;2.13;;;2.00;;
4700;SDS011;8724;51.272;6.554;2023-08-30T11:55:07;2.00;;;1.90;;
4700;SDS011;8724;51.272;6.554;2023-08-30T11:57:36;2.07;;;1.97;;
4700;SDS011;8724;51.272;6.554;2023-08-30T12:00:08;2.13;;;1.93;;
4700;SDS011;8724;51.272;6.554;2023-08-30T12:02:37;2.73;;;2.40;;
4700;SDS011;8724;51.272;6.554;2023-08-30T12:05:11;2.80;;;2.60;;
4700;SDS011;8724;51.272;6.554;2023-08-30T12:07:40;2.27;;;2.07;;
4700;SDS011;8724;51.272;6.554;2023-08-30T12:10:10;3.17;;;2.20;;
4700;SDS011;8724;51.272;6.554;2023-08-30T12:12:43;2.27;;;2.07;;
4700;SDS011;8724;51.272;6.554;2023-08-30T12:15:13;2.40;;;2.20;;
4700;SDS011;8724;51.272;6.554;2023-08-30T12:17:42;2.00;;;1.90;;
4700;SDS011;8724;51.272;6.554;2023-08-30T12:20:18;5.20;;;2.70;;
4700;SDS011;8724;51.272;6.554;2023-08-30T12:22:49;3.27;;;2.37;;
4700;SDS011;8724;51.272;6.554;2023-08-30T12:25:19;2.73;;;2.53;;
4700;SDS011;8724;51.272;6.554;2023-08-30T12:27:50;3.10;;;2.90;;
4700;SDS011;8724;51.272;6.554;2023-08-30T12:30:18;3.00;;;2.80;;
4700;SDS011;8724;51.272;6.554;2023-08-30T12:32:46;2.27;;;2.17;;
4700;SDS011;8724;51.272;6.554;2023-08-30T12:35:17;2.60;;;2.43;;
4700;SDS011;8724;51.272;6.554;2023-08-30T12:37:45;2.70;;;2.30;;
4700;SDS011;8724;51.272;6.554;2023-08-30T12:40:13;2.67;;;2.47;;
4700;SDS011;8724;51.272;6.554;2023-08-30T12:42:41;3.10;;;2.80;;
4700;SDS011;8724;51.272;6.554;2023-08-30T12:45:10;2.50;;;2.30;;
4700;SDS011;8724;51.272;6.554;2023-08-30T12:47:38;3.60;;;2.23;;
4700;SDS011;8724;51.272;6.554;2023-08-30T12:50:07;2.83;;;2.40;;
4700;SDS011;8724;51.272;6.554;2023-08-30T12:52:37;2.80;;;2.60;;
4700;SDS011;8724;51.272;6.554;2023-08-30T12:55:05;2.37;;;2.17;;
4700;SDS011;8724;51.272;6.554;2023-08-30T12:57:36;2.87;;;2.63;;
4700;SDS011;8724;51.272;6.554;2023-08-30T13:00:04;2.00;;;1.80;;
4700;SDS011;8724;51.272;6.554;2023-08-30T13:02:33;2.00;;;1.90;;
4700;SDS011;8724;51.272;6.554;2023-08-30T13:05:02;3.13;;;2.00;;
4700;SDS011;8724;51.272;6.554;2023-08-30T13:07:30;2.53;;;2.33;;
4700;SDS011;8724;51.272;6.554;2023-08-30T13:10:03;2.80;;;2.03;;
4700;SDS011;8724;51.272;6.554;2023-08-30T13:12:31;1.87;;;1.77;;
4700;SDS011;8724;51.272;6.554;2023-08-30T13:14:59;2.53;;;1.93;;
4700;SDS011;8724;51.272;6.554;2023-08-30T13:17:28;2.13;;;1.90;;
4700;SDS011;8724;51.272;6.554;2023-08-30T13:19:56;1.70;;;1.60;;
4700;SDS011;8724;51.272;6.554;2023-08-30T13:22:24;1.90;;;1.80;;
4700;SDS011;8724;51.272;6.554;2023-08-30T13:24:53;2.10;;;1.90;;
4700;SDS011;8724;51.272;6.554;2023-08-30T13:27:22;2.53;;;1.57;;
4700;SDS011;8724;51.272;6.554;2023-08-30T13:29:50;2.40;;;2.20;;
4700;SDS011;8724;51.272;6.554;2023-08-30T13:32:18;2.90;;;2.17;;
4700;SDS011;8724;51.272;6.554;2023-08-30T13:34:46;1.80;;;1.70;;
4700;SDS011;8724;51.272;6.554;2023-08-30T13:37:15;1.70;;;1.60;;
4700;SDS011;8724;51.272;6.554;2023-08-30T13:39:43;4.10;;;1.77;;
4700;SDS011;8724;51.272;6.554;2023-08-30T13:42:12;2.00;;;1.90;;
4700;SDS011;8724;51.272;6.554;2023-08-30T13:44:41;2.63;;;1.60;;
4700;SDS011;8724;51.272;6.554;2023-08-30T13:47:10;3.40;;;2.00;;
4700;SDS011;8724;51.272;6.554;2023-08-30T13:49:38;2.10;;;1.90;;
4700;SDS011;8724;51.272;6.554;2023-08-30T13:52:06;2.57;;;2.30;;
4700;SDS011;8724;51.272;6.554;2023-08-30T13:54:34;3.10;;;2.10;;
4700;SDS011;8724;51.272;6.554;2023-08-30T13:57:02;2.10;;;1.97;;
4700;SDS011;8724;51.272;6.554;2023-08-30T13:59:31;2.40;;;2.20;;
4700;SDS011;8724;51.272;6.554;2023-08-30T14:02:00;2.90;;;2.23;;
4700;SDS011;8724;51.272;6.554;2023-08-30T14:04:30;2.50;;;2.17;;
4700;SDS011;8724;51.272;6.554;2023-08-30T14:07:00;1.77;;;1.67;;
4700;SDS011;8724;51.272;6.554;2023-08-30T14:09:30;2.87;;;2.50;;
4700;SDS011;8724;51.272;6.554;2023-08-30T14:11:58;2.53;;;2.40;;
4700;SDS011;8724;51.272;6.554;2023-08-30T14:14:26;2.80;;;2.60;;
4700;SDS011;8724;51.272;6.554;2023-08-30T14:16:54;2.70;;;2.50;;
4700;SDS011;8724;51.272;6.554;2023-08-30T14:19:24;3.87;;;2.63;;
4700;SDS011;8724;51.272;6.554;2023-08-30T14:21:52;4.50;;;2.87;;
4700;SDS011;8724;51.272;6.554;2023-08-30T14:24:22;4.77;;;2.70;;
4700;SDS011;8724;51.272;6.554;2023-08-30T14:26:50;3.70;;;3.40;;
4700;SDS011;8724;51.272;6.554;2023-08-30T14:29:19;3.70;;;3.40;;
4700;SDS011;8724;51.272;6.554;2023-08-30T14:31:48;2.50;;;2.30;;
4700;SDS011;8724;51.272;6.554;2023-08-30T14:34:16;6.73;;;3.00;;
4700;SDS011;8724;51.272;6.554;2023-08-30T14:36:46;5.63;;;2.90;;
4700;SDS011;8724;51.272;6.554;2023-08-30T14:39:14;3.27;;;2.97;;
4700;SDS011;8724;51.272;6.554;2023-08-30T14:41:42;3.07;;;2.87;;
4700;SDS011;8724;51.272;6.554;2023-08-30T14:44:10;2.47;;;2.30;;
4700;SDS011;8724;51.272;6.554;2023-08-30T14:46:39;4.80;;;3.20;;
4700;SDS011;8724;51.272;6.554;2023-08-30T14:49:07;2.80;;;2.60;;
4700;SDS011;8724;51.272;6.554;2023-08-30T14:51:35;3.27;;;2.97;;
4700;SDS011;8724;51.272;6.554;2023-08-30T14:54:05;3.60;;;3.17;;
4700;SDS011;8724;51.272;6.554;2023-08-30T14:56:33;6.40;;;2.80;;
4700;SDS011;8724;51.272;6.554;2023-08-30T14:59:01;3.00;;;2.30;;
4700;SDS011;8724;51.272;6.554;2023-08-30T15:01:30;3.43;;;2.97;;
4700;SDS011;8724;51.272;6.554;2023-08-30T15:03:58;4.43;;;2.80;;
4700;SDS011;8724;51.272;6.554;2023-08-30T15:06:26;3.17;;;2.90;;
4700;SDS011;8724;51.272;6.554;2023-08-30T15:08:54;2.93;;;2.73;;
4700;SDS011;8724;51.272;6.554;2023-08-30T15:11:25;3.70;;;2.70;;
4700;SDS011;8724;51.272;6.554;2023-08-30T15:13:53;3.00;;;2.57;;
4700;SDS011;8724;51.272;6.554;2023-08-30T15:16:21;2.90;;;2.70;;
4700;SDS011;8724;51.272;6.554;2023-08-30T15:18:50;3.10;;;2.57;;
4700;SDS011;8724;51.272;6.554;2023-08-30T15:21:18;3.07;;;2.80;;
4700;SDS011;8724;51.272;6.554;2023-08-30T15:23:46;3.43;;;3.13;;
4700;SDS011;8724;51.272;6.554;2023-08-30T15:26:15;2.70;;;2.50;;
4700;SDS011;8724;51.272;6.554;2023-08-30T15:28:46;3.90;;;2.90;;